createdAt,value
2019-02-12T00:00:02.079Z,87.58
2019-02-12T00:00:33.298Z,87.61
2019-02-12T00:01:04.548Z,87.58
2019-02-12T00:01:38.055Z,87.59
2019-02-12T00:02:09.322Z,87.64
2019-02-12T00:02:40.538Z,87.57
2019-02-12T00:03:11.762Z,87.48
2019-02-12T00:03:42.972Z,87.37
2019-02-12T00:04:14.244Z,87.33
2019-02-12T00:04:45.487Z,87.33
2019-02-12T00:05:17.794Z,87.30
2019-02-12T00:05:48.999Z,87.24
2019-02-12T00:06:20.255Z,87.20
2019-02-12T00:06:51.500Z,87.14
2019-02-12T00:07:22.757Z,87.07
2019-02-12T00:07:53.960Z,86.95
2019-02-12T00:08:25.184Z,86.84
2019-02-12T00:08:56.391Z,86.72
2019-02-12T00:09:27.757Z,86.73
2019-02-12T00:09:58.978Z,86.55
2019-02-12T00:10:30.224Z,86.45
2019-02-12T00:11:01.571Z,86.38
2019-02-12T00:11:32.784Z,86.27
2019-02-12T00:12:03.994Z,86.13
2019-02-12T00:12:35.224Z,86.05
2019-02-12T00:13:06.415Z,85.87
2019-02-12T00:13:37.662Z,85.80
2019-02-12T00:14:08.902Z,85.68
2019-02-12T00:14:42.207Z,85.57
2019-02-12T00:15:13.462Z,85.38
2019-02-12T00:15:44.691Z,85.10
2019-02-12T00:16:15.951Z,84.86
2019-02-12T00:16:47.161Z,84.71
2019-02-12T00:17:18.397Z,84.51
2019-02-12T00:17:49.631Z,84.42
2019-02-12T00:18:20.863Z,84.30
2019-02-12T00:18:52.074Z,84.28
2019-02-12T00:19:23.303Z,84.24
2019-02-12T00:19:54.605Z,84.21
2019-02-12T00:20:25.811Z,84.28
2019-02-12T00:20:58.129Z,84.50
2019-02-12T00:21:29.346Z,84.54
2019-02-12T00:22:02.603Z,84.27
2019-02-12T00:22:33.829Z,83.95
2019-02-12T00:23:05.048Z,83.73
2019-02-12T00:23:36.287Z,83.63
2019-02-12T00:24:07.495Z,83.60
2019-02-12T00:24:38.712Z,83.50
2019-02-12T00:25:09.927Z,83.42
2019-02-12T00:25:41.192Z,83.34
2019-02-12T00:26:12.410Z,83.22
2019-02-12T00:26:43.615Z,83.15
2019-02-12T00:27:14.851Z,83.08
2019-02-12T00:27:46.110Z,83.08
2019-02-12T00:28:17.321Z,82.99
2019-02-12T00:28:48.550Z,82.95
2019-02-12T00:29:19.757Z,82.81
2019-02-12T00:29:50.985Z,82.73
2019-02-12T00:30:22.193Z,82.57
2019-02-12T00:30:55.701Z,82.55
2019-02-12T00:31:26.893Z,82.33
2019-02-12T00:31:58.110Z,82.33
2019-02-12T00:32:29.325Z,82.21
2019-02-12T00:33:00.584Z,82.09
2019-02-12T00:33:31.816Z,82.01
2019-02-12T00:34:03.021Z,81.97
2019-02-12T00:34:34.218Z,82.16
2019-02-12T00:35:05.483Z,82.33
2019-02-12T00:35:36.691Z,82.20
2019-02-12T00:36:07.901Z,82.25
2019-02-12T00:36:39.122Z,82.40
2019-02-12T00:37:10.355Z,82.40
2019-02-12T00:37:43.597Z,82.55
2019-02-12T00:38:14.829Z,82.48
2019-02-12T00:38:46.039Z,82.68
2019-02-12T00:39:17.313Z,82.66
2019-02-12T00:39:48.835Z,82.67
2019-02-12T00:40:20.079Z,82.77
2019-02-12T00:40:51.293Z,82.91
2019-02-12T00:41:22.535Z,83.24
2019-02-12T00:41:53.741Z,83.53
2019-02-12T00:42:24.950Z,83.68
2019-02-12T00:42:56.207Z,84.04
2019-02-12T00:43:27.408Z,84.46
2019-02-12T00:43:58.659Z,84.43
2019-02-12T00:44:29.949Z,84.43
2019-02-12T00:45:01.165Z,84.80
2019-02-12T00:45:32.373Z,84.92
2019-02-12T00:46:03.598Z,85.12
2019-02-12T00:46:35.000Z,85.24
2019-02-12T00:47:06.220Z,85.70
2019-02-12T00:47:37.502Z,86.20
2019-02-12T00:48:08.821Z,86.53
2019-02-12T00:48:40.102Z,86.86
2019-02-12T00:49:11.362Z,87.25
2019-02-12T00:49:42.933Z,87.45
2019-02-12T00:50:14.150Z,87.72
2019-02-12T00:50:45.364Z,88.12
2019-02-12T00:51:18.001Z,88.44
2019-02-12T00:51:50.484Z,88.56
2019-02-12T00:52:29.101Z,88.80
2019-02-12T00:53:00.311Z,89.13
2019-02-12T00:53:31.546Z,89.49
2019-02-12T00:54:02.769Z,89.52
2019-02-12T00:54:34.015Z,89.84
2019-02-12T00:55:05.243Z,90.09
2019-02-12T00:55:36.462Z,90.30
2019-02-12T00:56:07.672Z,90.57
2019-02-12T00:56:38.900Z,90.91
2019-02-12T00:57:10.156Z,91.23
2019-02-12T00:57:41.358Z,91.44
2019-02-12T00:58:12.577Z,91.61
2019-02-12T00:58:43.792Z,91.82
2019-02-12T00:59:15.463Z,92.02
2019-02-12T00:59:46.667Z,92.25
2019-02-12T01:00:17.878Z,92.45
2019-02-12T01:00:49.079Z,92.71
2019-02-12T01:01:20.291Z,92.84
2019-02-12T01:01:51.511Z,92.99
2019-02-12T01:02:22.714Z,93.17
2019-02-12T01:02:53.948Z,93.33
2019-02-12T01:03:25.145Z,93.47
2019-02-12T01:03:56.985Z,93.63
2019-02-12T01:04:28.269Z,93.77
2019-02-12T01:04:59.502Z,93.89
2019-02-12T01:05:30.757Z,94.05
2019-02-12T01:06:01.989Z,94.10
2019-02-12T01:06:33.201Z,94.23
2019-02-12T01:07:04.411Z,94.37
2019-02-12T01:07:35.639Z,94.49
2019-02-12T01:08:07.971Z,94.61
2019-02-12T01:08:39.222Z,94.75
2019-02-12T01:09:10.444Z,94.84
2019-02-12T01:09:41.667Z,94.95
2019-02-12T01:10:12.874Z,95.08
2019-02-12T01:10:44.084Z,95.18
2019-02-12T01:11:15.299Z,95.28
2019-02-12T01:11:46.518Z,95.31
2019-02-12T01:12:17.731Z,95.37
2019-02-12T01:12:48.941Z,95.39
2019-02-12T01:13:20.215Z,95.52
2019-02-12T01:13:51.436Z,95.62
2019-02-12T01:14:22.685Z,95.63
2019-02-12T01:14:53.903Z,95.68
2019-02-12T01:15:25.125Z,95.72
2019-02-12T01:15:56.365Z,95.73
2019-02-12T01:16:27.576Z,95.66
2019-02-12T01:16:58.777Z,95.61
2019-02-12T01:17:29.985Z,95.62
2019-02-12T01:18:01.212Z,95.63
2019-02-12T01:18:32.478Z,95.56
2019-02-12T01:19:03.705Z,95.52
2019-02-12T01:19:34.947Z,95.52
2019-02-12T01:20:06.160Z,95.49
2019-02-12T01:20:37.366Z,95.48
2019-02-12T01:21:08.597Z,95.46
2019-02-12T01:21:39.811Z,95.42
2019-02-12T01:22:14.065Z,95.42
2019-02-12T01:22:45.274Z,95.41
2019-02-12T01:23:16.549Z,95.48
2019-02-12T01:23:47.769Z,95.56
2019-02-12T01:24:18.988Z,95.58
2019-02-12T01:24:50.193Z,95.56
2019-02-12T01:25:21.410Z,95.45
2019-02-12T01:25:52.627Z,95.47
2019-02-12T01:26:23.877Z,95.52
2019-02-12T01:26:55.073Z,95.61
2019-02-12T01:27:26.284Z,95.63
2019-02-12T01:27:57.587Z,95.68
2019-02-12T01:28:28.799Z,95.69
2019-02-12T01:29:00.028Z,95.67
2019-02-12T01:29:31.242Z,95.67
2019-02-12T01:30:02.460Z,95.73
2019-02-12T01:30:33.668Z,95.81
2019-02-12T01:31:04.900Z,95.91
2019-02-12T01:31:36.106Z,95.90
2019-02-12T01:32:07.349Z,95.95
2019-02-12T01:32:38.553Z,95.98
2019-02-12T01:33:09.824Z,95.96
2019-02-12T01:33:41.035Z,95.90
2019-02-12T01:34:12.291Z,95.87
2019-02-12T01:34:43.486Z,95.83
2019-02-12T01:35:14.698Z,95.77
2019-02-12T01:35:45.985Z,95.70
2019-02-12T01:36:17.194Z,95.83
2019-02-12T01:36:49.559Z,95.99
2019-02-12T01:37:20.777Z,96.09
2019-02-12T01:37:52.019Z,96.15
2019-02-12T01:38:23.247Z,96.20
2019-02-12T01:38:54.472Z,96.31
2019-02-12T01:39:25.687Z,96.37
2019-02-12T01:39:56.899Z,96.46
2019-02-12T01:40:28.172Z,96.53
2019-02-12T01:40:59.411Z,96.54
2019-02-12T01:41:30.714Z,96.50
2019-02-12T01:42:01.949Z,96.52
2019-02-12T01:42:33.231Z,96.51
2019-02-12T01:43:04.791Z,96.58
2019-02-12T01:43:35.992Z,96.68
2019-02-12T01:44:07.231Z,96.69
2019-02-12T01:44:38.536Z,96.76
2019-02-12T01:45:09.762Z,96.86
2019-02-12T01:45:40.975Z,96.87
2019-02-12T01:46:12.193Z,96.92
2019-02-12T01:46:43.419Z,97.00
2019-02-12T01:47:14.702Z,97.01
2019-02-12T01:47:45.920Z,97.00
2019-02-12T01:48:17.131Z,97.07
2019-02-12T01:48:48.343Z,97.00
2019-02-12T01:49:19.577Z,97.02
2019-02-12T01:49:50.787Z,97.00
2019-02-12T01:50:22.011Z,96.89
2019-02-12T01:50:53.223Z,96.82
2019-02-12T01:51:24.430Z,96.88
2019-02-12T01:51:55.636Z,96.74
2019-02-12T01:52:26.897Z,96.69
2019-02-12T01:52:58.173Z,96.69
2019-02-12T01:53:29.401Z,96.67
2019-02-12T01:54:00.666Z,96.66
2019-02-12T01:54:31.867Z,96.62
2019-02-12T01:55:03.078Z,96.65
2019-02-12T01:55:34.296Z,96.70
2019-02-12T01:56:05.507Z,96.67
2019-02-12T01:56:36.744Z,96.58
2019-02-12T01:57:07.986Z,96.55
2019-02-12T01:57:39.202Z,96.57
2019-02-12T01:58:10.494Z,96.56
2019-02-12T01:58:41.692Z,96.55
2019-02-12T01:59:12.921Z,96.57
2019-02-12T01:59:44.151Z,96.54
2019-02-12T02:00:15.358Z,96.51
2019-02-12T02:00:47.538Z,96.43
2019-02-12T02:01:18.780Z,96.30
2019-02-12T02:01:50.001Z,96.08
2019-02-12T02:02:21.228Z,95.92
2019-02-12T02:02:52.440Z,95.77
2019-02-12T02:03:23.646Z,95.78
2019-02-12T02:03:54.862Z,95.72
2019-02-12T02:04:26.095Z,95.56
2019-02-12T02:04:57.318Z,95.47
2019-02-12T02:05:28.537Z,95.34
2019-02-12T02:05:59.796Z,95.46
2019-02-12T02:06:31.097Z,95.56
2019-02-12T02:07:02.324Z,95.55
2019-02-12T02:07:33.611Z,95.52
2019-02-12T02:08:04.827Z,95.41
2019-02-12T02:08:36.060Z,95.46
2019-02-12T02:09:07.293Z,95.55
2019-02-12T02:09:38.504Z,95.62
2019-02-12T02:10:09.797Z,95.76
2019-02-12T02:10:41.013Z,95.93
2019-02-12T02:11:12.228Z,95.98
2019-02-12T02:11:43.450Z,96.02
2019-02-12T02:12:14.677Z,95.82
2019-02-12T02:12:45.942Z,95.75
2019-02-12T02:13:17.161Z,95.86
2019-02-12T02:13:48.407Z,95.93
2019-02-12T02:14:19.642Z,96.00
2019-02-12T02:14:50.844Z,96.01
2019-02-12T02:15:22.064Z,96.00
2019-02-12T02:15:53.298Z,96.01
2019-02-12T02:16:24.528Z,95.88
2019-02-12T02:16:56.803Z,95.87
2019-02-12T02:17:28.016Z,95.88
2019-02-12T02:17:59.277Z,95.80
2019-02-12T02:18:30.507Z,95.76
2019-02-12T02:19:01.736Z,95.57
2019-02-12T02:19:32.941Z,95.38
2019-02-12T02:20:04.162Z,95.17
2019-02-12T02:20:35.369Z,95.05
2019-02-12T02:21:06.591Z,95.08
2019-02-12T02:21:43.913Z,95.12
2019-02-12T02:22:10.736Z,95.13
2019-02-12T02:22:41.962Z,94.90
2019-02-12T02:23:15.438Z,94.73
2019-02-12T02:23:46.663Z,94.76
2019-02-12T02:24:17.874Z,94.68
2019-02-12T02:24:49.532Z,94.65
2019-02-12T02:25:21.222Z,94.61
2019-02-12T02:25:52.433Z,94.40
2019-02-12T02:26:23.654Z,94.05
2019-02-12T02:26:55.242Z,93.62
2019-02-12T02:27:26.464Z,93.36
2019-02-12T02:27:57.681Z,93.05
2019-02-12T02:28:28.896Z,93.15
2019-02-12T02:29:00.118Z,93.54
2019-02-12T02:29:31.337Z,93.77
2019-02-12T02:30:02.569Z,93.71
2019-02-12T02:30:33.813Z,93.16
2019-02-12T02:31:05.029Z,93.19
2019-02-12T02:31:36.252Z,93.21
2019-02-12T02:32:07.477Z,93.02
2019-02-12T02:32:38.822Z,92.90
2019-02-12T02:33:10.011Z,93.03
2019-02-12T02:33:41.223Z,93.26
2019-02-12T02:34:12.444Z,93.06
2019-02-12T02:34:46.567Z,93.19
2019-02-12T02:35:17.790Z,93.30
2019-02-12T02:35:49.035Z,93.40
2019-02-12T02:36:20.248Z,93.51
2019-02-12T02:36:51.908Z,93.00
2019-02-12T02:37:23.153Z,92.80
2019-02-12T02:37:54.364Z,92.81
2019-02-12T02:38:25.591Z,92.89
2019-02-12T02:38:56.806Z,92.75
2019-02-12T02:39:28.048Z,92.55
2019-02-12T02:39:59.259Z,92.75
2019-02-12T02:40:30.458Z,92.76
2019-02-12T02:41:01.683Z,92.73
2019-02-12T02:41:32.880Z,92.82
2019-02-12T02:42:05.233Z,92.83
2019-02-12T02:42:37.214Z,92.87
2019-02-12T02:43:08.451Z,93.01
2019-02-12T02:43:39.634Z,92.83
2019-02-12T02:44:10.838Z,92.24
2019-02-12T02:44:42.046Z,92.12
2019-02-12T02:45:13.275Z,92.40
2019-02-12T02:45:44.475Z,92.25
2019-02-12T02:46:15.685Z,92.69
2019-02-12T02:46:47.903Z,92.93
2019-02-12T02:47:19.119Z,93.22
2019-02-12T02:47:50.381Z,93.29
2019-02-12T02:48:21.588Z,92.02
2019-02-12T02:48:53.209Z,91.26
2019-02-12T02:49:24.422Z,90.96
2019-02-12T02:49:56.437Z,90.40
2019-02-12T02:50:27.719Z,90.76
2019-02-12T02:50:58.929Z,90.86
2019-02-12T02:51:30.166Z,90.97
2019-02-12T02:52:01.416Z,91.02
2019-02-12T02:52:32.627Z,90.88
2019-02-12T02:53:03.831Z,90.91
2019-02-12T02:53:35.036Z,90.81
2019-02-12T02:54:06.260Z,91.07
2019-02-12T02:54:37.484Z,91.54
2019-02-12T02:55:08.685Z,91.62
2019-02-12T02:55:39.908Z,91.59
2019-02-12T02:56:11.150Z,91.71
2019-02-12T02:56:42.370Z,91.84
2019-02-12T02:57:13.597Z,92.01
2019-02-12T02:57:44.839Z,91.98
2019-02-12T02:58:16.085Z,91.67
2019-02-12T02:58:47.312Z,91.22
2019-02-12T02:59:18.527Z,91.13
2019-02-12T02:59:49.718Z,91.36
2019-02-12T03:00:20.957Z,91.24
2019-02-12T03:00:52.486Z,91.54
2019-02-12T03:01:23.714Z,91.23
2019-02-12T03:01:54.899Z,91.14
2019-02-12T03:02:26.111Z,90.28
2019-02-12T03:02:57.375Z,90.15
2019-02-12T03:03:28.571Z,90.18
2019-02-12T03:03:59.808Z,90.29
2019-02-12T03:04:31.058Z,90.06
2019-02-12T03:05:03.312Z,90.33
2019-02-12T03:05:34.642Z,90.63
2019-02-12T03:06:05.909Z,90.95
2019-02-12T03:06:37.134Z,90.79
2019-02-12T03:07:08.375Z,90.18
2019-02-12T03:07:39.604Z,89.50
2019-02-12T03:08:11.225Z,89.11
2019-02-12T03:08:42.430Z,89.47
2019-02-12T03:09:13.651Z,89.79
2019-02-12T03:09:44.881Z,89.69
2019-02-12T03:10:16.104Z,89.94
2019-02-12T03:10:47.362Z,89.21
2019-02-12T03:11:18.567Z,89.08
2019-02-12T03:11:49.784Z,89.33
2019-02-12T03:12:21.005Z,89.55
2019-02-12T03:12:52.204Z,89.82
2019-02-12T03:13:30.687Z,89.25
2019-02-12T03:14:01.900Z,89.33
2019-02-12T03:14:33.140Z,89.36
2019-02-12T03:15:06.513Z,89.47
2019-02-12T03:15:37.722Z,89.42
2019-02-12T03:16:08.916Z,89.34
2019-02-12T03:16:40.170Z,89.48
2019-02-12T03:17:11.367Z,89.15
2019-02-12T03:17:42.590Z,89.04
2019-02-12T03:18:13.776Z,89.01
2019-02-12T03:18:45.026Z,89.07
2019-02-12T03:19:16.221Z,89.07
2019-02-12T03:19:47.840Z,89.13
2019-02-12T03:20:19.102Z,89.24
2019-02-12T03:20:52.669Z,89.38
2019-02-12T03:21:23.901Z,88.95
2019-02-12T03:22:03.500Z,88.83
2019-02-12T03:22:28.076Z,88.98
2019-02-12T03:22:59.299Z,89.06
2019-02-12T03:23:30.503Z,88.95
2019-02-12T03:24:01.698Z,88.99
2019-02-12T03:24:32.898Z,88.99
2019-02-12T03:25:04.189Z,88.85
2019-02-12T03:25:35.426Z,88.76
2019-02-12T03:26:06.679Z,88.70
2019-02-12T03:26:37.900Z,88.87
2019-02-12T03:27:09.100Z,88.95
2019-02-12T03:27:40.302Z,88.87
2019-02-12T03:28:11.540Z,88.80
2019-02-12T03:28:42.746Z,88.66
2019-02-12T03:29:13.949Z,88.54
2019-02-12T03:29:45.186Z,88.43
2019-02-12T03:30:16.486Z,88.59
2019-02-12T03:30:47.697Z,88.53
2019-02-12T03:31:18.963Z,88.55
2019-02-12T03:31:50.205Z,88.73
2019-02-12T03:32:21.451Z,88.85
2019-02-12T03:32:52.643Z,88.58
2019-02-12T03:33:23.846Z,88.48
2019-02-12T03:33:55.061Z,88.58
2019-02-12T03:34:26.302Z,88.56
2019-02-12T03:34:57.513Z,88.59
2019-02-12T03:35:28.725Z,88.76
2019-02-12T03:35:59.939Z,88.87
2019-02-12T03:36:31.139Z,88.77
2019-02-12T03:37:02.349Z,88.69
2019-02-12T03:37:33.599Z,88.62
2019-02-12T03:38:04.814Z,88.59
2019-02-12T03:38:36.012Z,88.66
2019-02-12T03:39:07.249Z,88.81
2019-02-12T03:39:38.454Z,89.14
2019-02-12T03:40:09.696Z,88.90
2019-02-12T03:40:40.912Z,88.50
2019-02-12T03:41:13.210Z,88.52
2019-02-12T03:41:44.415Z,88.36
2019-02-12T03:42:15.625Z,88.10
2019-02-12T03:42:46.902Z,88.01
2019-02-12T03:43:18.117Z,87.63
2019-02-12T03:43:49.323Z,87.27
2019-02-12T03:44:20.511Z,87.49
2019-02-12T03:44:51.722Z,87.36
2019-02-12T03:45:22.914Z,87.21
2019-02-12T03:45:54.130Z,86.72
2019-02-12T03:46:25.338Z,86.67
2019-02-12T03:46:56.535Z,86.65
2019-02-12T03:47:27.759Z,86.78
2019-02-12T03:47:59.029Z,86.93
2019-02-12T03:48:30.255Z,86.20
2019-02-12T03:49:01.570Z,85.74
2019-02-12T03:49:33.819Z,86.05
2019-02-12T03:50:05.040Z,86.22
2019-02-12T03:50:36.311Z,85.48
2019-02-12T03:51:07.519Z,85.47
2019-02-12T03:51:40.777Z,85.77
2019-02-12T03:52:13.247Z,85.43
2019-02-12T03:52:44.583Z,85.64
2019-02-12T03:53:15.794Z,85.68
2019-02-12T03:53:49.286Z,85.32
2019-02-12T03:54:20.494Z,85.62
2019-02-12T03:54:51.693Z,85.90
2019-02-12T03:55:22.918Z,85.84
2019-02-12T03:55:54.178Z,85.07
2019-02-12T03:56:25.399Z,84.84
2019-02-12T03:56:56.602Z,85.13
2019-02-12T03:57:27.790Z,85.27
2019-02-12T03:57:59.022Z,85.39
2019-02-12T03:58:30.221Z,84.06
2019-02-12T03:59:01.502Z,85.08
2019-02-12T03:59:32.693Z,84.58
2019-02-12T04:00:03.891Z,84.04
2019-02-12T04:00:37.357Z,83.40
2019-02-12T04:01:08.567Z,83.29
2019-02-12T04:01:39.783Z,82.79
2019-02-12T04:02:14.062Z,82.82
2019-02-12T04:02:45.253Z,83.26
2019-02-12T04:03:16.485Z,83.08
2019-02-12T04:03:47.709Z,83.19
2019-02-12T04:04:18.964Z,82.58
2019-02-12T04:04:50.164Z,83.17
2019-02-12T04:05:21.367Z,83.75
2019-02-12T04:05:52.588Z,83.67
2019-02-12T04:06:23.817Z,83.43
2019-02-12T04:06:55.034Z,83.15
2019-02-12T04:07:26.307Z,82.76
2019-02-12T04:07:57.501Z,82.12
2019-02-12T04:08:28.753Z,82.13
2019-02-12T04:08:59.962Z,82.08
2019-02-12T04:09:31.183Z,82.12
2019-02-12T04:10:02.700Z,81.89
2019-02-12T04:10:33.984Z,82.77
2019-02-12T04:11:05.174Z,83.25
2019-02-12T04:11:36.418Z,83.54
2019-02-12T04:12:07.630Z,83.13
2019-02-12T04:12:38.905Z,81.85
2019-02-12T04:13:12.578Z,80.83
2019-02-12T04:13:43.742Z,79.96
2019-02-12T04:14:14.959Z,80.21
2019-02-12T04:14:46.180Z,80.44
2019-02-12T04:15:17.497Z,80.84
2019-02-12T04:15:48.739Z,80.40
2019-02-12T04:16:19.969Z,79.39
2019-02-12T04:16:51.169Z,79.39
2019-02-12T04:17:22.392Z,79.99
2019-02-12T04:17:53.594Z,80.02
2019-02-12T04:18:25.618Z,79.25
2019-02-12T04:18:56.844Z,79.05
2019-02-12T04:19:28.068Z,78.77
2019-02-12T04:19:59.321Z,78.96
2019-02-12T04:20:31.550Z,79.15
2019-02-12T04:21:02.776Z,78.75
2019-02-12T04:21:34.020Z,79.04
2019-02-12T04:22:05.254Z,78.64
2019-02-12T04:22:36.478Z,78.87
2019-02-12T04:23:07.722Z,78.86
2019-02-12T04:23:41.014Z,78.76
2019-02-12T04:24:12.218Z,79.05
2019-02-12T04:24:43.476Z,78.27
2019-02-12T04:25:14.697Z,78.86
2019-02-12T04:25:45.973Z,78.79
2019-02-12T04:26:17.669Z,77.90
2019-02-12T04:26:48.928Z,77.71
2019-02-12T04:27:20.107Z,77.90
2019-02-12T04:27:51.331Z,78.21
2019-02-12T04:28:22.537Z,78.48
2019-02-12T04:28:53.755Z,77.73
2019-02-12T04:29:25.002Z,77.87
2019-02-12T04:29:56.239Z,78.35
2019-02-12T04:30:27.431Z,78.35
2019-02-12T04:30:59.706Z,77.46
2019-02-12T04:31:30.932Z,77.19
2019-02-12T04:32:02.146Z,77.64
2019-02-12T04:32:33.410Z,77.82
2019-02-12T04:33:05.013Z,78.02
2019-02-12T04:33:36.207Z,77.71
2019-02-12T04:34:07.440Z,77.18
2019-02-12T04:34:38.709Z,76.68
2019-02-12T04:35:11.031Z,76.11
2019-02-12T04:35:42.248Z,77.37
2019-02-12T04:36:13.484Z,77.03
2019-02-12T04:36:44.812Z,77.11
2019-02-12T04:37:16.008Z,77.39
2019-02-12T04:37:47.229Z,77.16
2019-02-12T04:38:18.443Z,76.72
2019-02-12T04:38:49.632Z,76.67
2019-02-12T04:39:23.143Z,75.98
2019-02-12T04:39:57.249Z,76.54
2019-02-12T04:40:28.469Z,76.54
2019-02-12T04:40:59.681Z,76.89
2019-02-12T04:41:30.898Z,76.95
2019-02-12T04:42:02.124Z,76.27
2019-02-12T04:42:33.340Z,77.04
2019-02-12T04:43:04.579Z,76.44
2019-02-12T04:43:35.832Z,76.38
2019-02-12T04:44:07.055Z,76.74
2019-02-12T04:44:38.330Z,76.21
2019-02-12T04:45:09.530Z,76.71
2019-02-12T04:45:40.781Z,76.71
2019-02-12T04:46:12.021Z,76.82
2019-02-12T04:46:45.542Z,76.16
2019-02-12T04:47:16.781Z,75.58
2019-02-12T04:47:47.978Z,75.41
2019-02-12T04:48:19.264Z,74.50
2019-02-12T04:48:51.491Z,75.18
2019-02-12T04:49:22.703Z,75.09
2019-02-12T04:49:53.912Z,75.59
2019-02-12T04:50:25.111Z,75.33
2019-02-12T04:50:56.308Z,75.20
2019-02-12T04:51:27.502Z,75.98
2019-02-12T04:51:58.700Z,75.16
2019-02-12T04:52:31.926Z,75.33
2019-02-12T04:53:03.351Z,76.07
2019-02-12T04:53:34.533Z,75.37
2019-02-12T04:54:05.834Z,74.90
2019-02-12T04:54:37.064Z,75.52
2019-02-12T04:55:08.270Z,75.50
2019-02-12T04:55:39.500Z,75.59
2019-02-12T04:56:13.016Z,75.30
2019-02-12T04:56:44.221Z,74.81
2019-02-12T04:57:15.433Z,74.50
2019-02-12T04:57:46.643Z,74.56
2019-02-12T04:58:17.849Z,73.39
2019-02-12T04:58:49.049Z,73.39
2019-02-12T04:59:20.299Z,74.07
2019-02-12T04:59:51.513Z,74.79
2019-02-12T05:00:22.735Z,74.12
2019-02-12T05:00:55.052Z,74.37
2019-02-12T05:01:26.240Z,73.85
2019-02-12T05:01:57.460Z,73.85
2019-02-12T05:02:28.672Z,74.43
2019-02-12T05:02:59.911Z,73.86
2019-02-12T05:03:31.122Z,73.74
2019-02-12T05:04:02.365Z,73.50
2019-02-12T05:04:33.604Z,73.02
2019-02-12T05:05:04.812Z,73.88
2019-02-12T05:05:36.032Z,74.03
2019-02-12T05:06:09.763Z,73.60
2019-02-12T05:06:40.968Z,73.99
2019-02-12T05:07:12.167Z,73.28
2019-02-12T05:07:43.391Z,73.47
2019-02-12T05:08:14.638Z,74.50
2019-02-12T05:08:45.849Z,73.37
2019-02-12T05:09:17.065Z,73.98
2019-02-12T05:09:48.262Z,73.03
2019-02-12T05:10:19.519Z,73.35
2019-02-12T05:10:50.819Z,72.93
2019-02-12T05:11:22.019Z,72.09
2019-02-12T05:11:53.229Z,72.75
2019-02-12T05:12:24.437Z,73.34
2019-02-12T05:12:55.634Z,72.62
2019-02-12T05:13:26.861Z,72.36
2019-02-12T05:13:58.059Z,72.55
2019-02-12T05:14:29.292Z,72.59
2019-02-12T05:15:00.503Z,73.23
2019-02-12T05:15:31.751Z,75.40
2019-02-12T05:16:03.039Z,74.52
2019-02-12T05:16:34.242Z,72.76
2019-02-12T05:17:05.501Z,72.04
2019-02-12T05:17:36.705Z,70.81
2019-02-12T05:18:07.974Z,70.86
2019-02-12T05:18:39.172Z,71.54
2019-02-12T05:19:10.392Z,71.17
2019-02-12T05:19:41.655Z,71.39
2019-02-12T05:20:12.847Z,71.58
2019-02-12T05:20:44.108Z,71.65
2019-02-12T05:21:15.285Z,72.28
2019-02-12T05:21:46.481Z,72.64
2019-02-12T05:22:17.760Z,72.29
2019-02-12T05:22:48.995Z,71.84
2019-02-12T05:23:20.235Z,71.78
2019-02-12T05:23:51.477Z,71.60
2019-02-12T05:24:22.665Z,71.79
2019-02-12T05:24:53.914Z,72.28
2019-02-12T05:25:25.118Z,71.65
2019-02-12T05:25:56.341Z,72.30
2019-02-12T05:26:27.515Z,71.97
2019-02-12T05:26:58.740Z,71.87
2019-02-12T05:27:29.987Z,71.82
2019-02-12T05:28:01.245Z,72.39
2019-02-12T05:28:32.464Z,72.45
2019-02-12T05:29:03.666Z,72.51
2019-02-12T05:29:34.881Z,72.17
2019-02-12T05:30:06.096Z,71.87
2019-02-12T05:30:37.338Z,72.37
2019-02-12T05:31:08.554Z,72.58
2019-02-12T05:31:39.781Z,72.61
2019-02-12T05:32:11.086Z,73.12
2019-02-12T05:32:42.274Z,72.81
2019-02-12T05:33:13.483Z,72.49
2019-02-12T05:33:44.688Z,72.53
2019-02-12T05:34:15.908Z,72.66
2019-02-12T05:34:47.113Z,72.29
2019-02-12T05:35:18.329Z,72.31
2019-02-12T05:35:49.722Z,72.37
2019-02-12T05:36:20.943Z,72.87
2019-02-12T05:36:52.147Z,72.30
2019-02-12T05:37:23.358Z,72.56
2019-02-12T05:37:54.545Z,72.22
2019-02-12T05:38:25.769Z,72.09
2019-02-12T05:38:56.979Z,72.53
2019-02-12T05:39:29.322Z,72.26
2019-02-12T05:40:00.532Z,71.86
2019-02-12T05:40:31.753Z,71.65
2019-02-12T05:41:03.080Z,72.27
2019-02-12T05:41:34.291Z,71.76
2019-02-12T05:42:05.492Z,71.08
2019-02-12T05:42:36.698Z,71.65
2019-02-12T05:43:09.948Z,72.73
2019-02-12T05:43:43.164Z,70.70
2019-02-12T05:44:14.387Z,70.66
2019-02-12T05:44:45.610Z,71.45
2019-02-12T05:45:16.843Z,69.39
2019-02-12T05:45:48.170Z,69.77
2019-02-12T05:46:19.388Z,68.69
2019-02-12T05:46:50.584Z,69.85
2019-02-12T05:47:21.828Z,68.93
2019-02-12T05:47:53.154Z,69.19
2019-02-12T05:48:24.487Z,67.89
2019-02-12T05:48:55.680Z,70.27
2019-02-12T05:49:26.912Z,69.20
2019-02-12T05:49:58.184Z,69.49
2019-02-12T05:50:29.389Z,69.03
2019-02-12T05:51:00.596Z,71.74
2019-02-12T05:51:31.788Z,69.48
2019-02-12T05:52:03.001Z,68.23
2019-02-12T05:52:36.263Z,68.63
2019-02-12T05:53:07.518Z,68.14
2019-02-12T05:53:38.950Z,69.88
2019-02-12T05:54:10.165Z,67.32
2019-02-12T05:54:41.433Z,66.62
2019-02-12T05:55:12.665Z,66.67
2019-02-12T05:55:43.955Z,67.17
2019-02-12T05:56:15.153Z,68.20
2019-02-12T05:56:46.352Z,68.26
2019-02-12T05:57:17.602Z,67.46
2019-02-12T05:57:48.790Z,67.28
2019-02-12T05:58:20.219Z,67.34
2019-02-12T05:58:51.395Z,67.27
2019-02-12T05:59:22.642Z,67.25
2019-02-12T05:59:53.885Z,67.23
2019-02-12T06:00:25.113Z,67.15
2019-02-12T06:00:56.353Z,67.77
2019-02-12T06:01:27.629Z,67.26
2019-02-12T06:01:58.884Z,67.30
2019-02-12T06:02:30.421Z,68.14
2019-02-12T06:03:01.665Z,67.95
2019-02-12T06:03:32.874Z,67.96
2019-02-12T06:04:04.081Z,68.13
2019-02-12T06:04:35.300Z,68.32
2019-02-12T06:05:06.495Z,68.80
2019-02-12T06:05:37.726Z,69.03
2019-02-12T06:06:08.955Z,68.67
2019-02-12T06:06:40.184Z,67.40
2019-02-12T06:07:11.733Z,67.56
2019-02-12T06:07:42.925Z,69.17
2019-02-12T06:08:14.138Z,69.09
2019-02-12T06:08:45.410Z,69.31
2019-02-12T06:09:16.621Z,67.62
2019-02-12T06:09:47.845Z,66.87
2019-02-12T06:10:19.040Z,68.82
2019-02-12T06:10:50.285Z,68.27
2019-02-12T06:11:21.866Z,67.68
2019-02-12T06:11:53.091Z,67.83
2019-02-12T06:12:24.677Z,67.95
2019-02-12T06:12:57.183Z,67.21
2019-02-12T06:13:28.411Z,67.37
2019-02-12T06:13:59.656Z,67.37
2019-02-12T06:14:30.863Z,67.72
2019-02-12T06:15:02.077Z,68.30
2019-02-12T06:15:33.272Z,68.40
2019-02-12T06:16:04.498Z,68.85
2019-02-12T06:16:35.693Z,68.75
2019-02-12T06:17:06.936Z,68.47
2019-02-12T06:17:38.154Z,68.94
2019-02-12T06:18:09.430Z,69.36
2019-02-12T06:18:40.594Z,69.33
2019-02-12T06:19:11.815Z,69.47
2019-02-12T06:19:43.003Z,69.43
2019-02-12T06:20:14.226Z,69.46
2019-02-12T06:20:45.806Z,69.34
2019-02-12T06:21:17.019Z,69.37
2019-02-12T06:21:48.298Z,69.60
2019-02-12T06:22:19.511Z,69.25
2019-02-12T06:22:50.711Z,69.31
2019-02-12T06:23:21.932Z,68.85
2019-02-12T06:23:53.127Z,69.30
2019-02-12T06:24:27.451Z,69.16
2019-02-12T06:24:58.660Z,69.21
2019-02-12T06:25:29.869Z,68.84
2019-02-12T06:26:01.087Z,69.04
2019-02-12T06:26:32.273Z,68.80
2019-02-12T06:27:03.513Z,69.01
2019-02-12T06:27:34.709Z,68.82
2019-02-12T06:28:05.922Z,69.24
2019-02-12T06:28:37.133Z,68.72
2019-02-12T06:29:10.632Z,68.48
2019-02-12T06:29:41.871Z,69.39
2019-02-12T06:30:13.069Z,68.96
2019-02-12T06:30:44.381Z,68.82
2019-02-12T06:31:15.603Z,69.25
2019-02-12T06:31:46.809Z,69.29
2019-02-12T06:32:18.039Z,68.87
2019-02-12T06:32:49.257Z,69.07
2019-02-12T06:33:20.468Z,68.75
2019-02-12T06:33:51.654Z,68.80
2019-02-12T06:34:22.864Z,68.43
2019-02-12T06:34:54.075Z,67.73
2019-02-12T06:35:26.351Z,67.31
2019-02-12T06:35:57.552Z,66.67
2019-02-12T06:36:28.824Z,67.34
2019-02-12T06:37:00.010Z,66.49
2019-02-12T06:37:31.689Z,66.77
2019-02-12T06:38:02.939Z,66.94
2019-02-12T06:38:34.116Z,67.62
2019-02-12T06:39:05.319Z,66.40
2019-02-12T06:39:36.544Z,67.22
2019-02-12T06:40:07.761Z,66.59
2019-02-12T06:40:38.984Z,66.67
2019-02-12T06:41:10.191Z,67.07
2019-02-12T06:41:41.452Z,67.24
2019-02-12T06:42:13.667Z,66.69
2019-02-12T06:42:44.874Z,67.29
2019-02-12T06:43:16.103Z,68.58
2019-02-12T06:43:47.638Z,67.98